sensor_id;sensor_type;location;lat;lon;timestamp;temperature;humidity
796;DHT22;381;48.770;9.188;2022-12-11T00:05:05;3.00;99.90
796;DHT22;381;48.770;9.188;2022-12-11T00:10:17;3.00;99.90
796;DHT22;381;48.770;9.188;2022-12-11T00:15:19;2.90;99.90
796;DHT22;381;48.770;9.188;2022-12-11T00:20:21;2.90;99.90
796;DHT22;381;48.770;9.188;2022-12-11T00:25:24;2.80;99.90
796;DHT22;381;48.770;9.188;2022-12-11T00:30:27;2.90;99.90
796;DHT22;381;48.770;9.188;2022-12-11T00:35:29;2.90;99.90
796;DHT22;381;48.770;9.188;2022-12-11T00:40:34;2.90;99.90
796;DHT22;381;48.770;9.188;2022-12-11T00:45:36;3.00;99.90
796;DHT22;381;48.770;9.188;2022-12-11T00:50:39;3.10;99.90
796;DHT22;381;48.770;9.188;2022-12-11T00:55:42;3.10;99.90
796;DHT22;381;48.770;9.188;2022-12-11T01:00:45;3.20;99.90
796;DHT22;381;48.770;9.188;2022-12-11T01:05:51;3.30;99.90
796;DHT22;381;48.770;9.188;2022-12-11T01:11:02;3.40;99.90
796;DHT22;381;48.770;9.188;2022-12-11T01:16:06;3.50;99.90
796;DHT22;381;48.770;9.188;2022-12-11T01:21:11;3.60;99.90
796;DHT22;381;48.770;9.188;2022-12-11T01:26:15;3.70;99.90
796;DHT22;381;48.770;9.188;2022-12-11T01:31:18;3.70;99.90
796;DHT22;381;48.770;9.188;2022-12-11T01:36:22;3.70;99.90
796;DHT22;381;48.770;9.188;2022-12-11T01:41:25;3.80;99.90
796;DHT22;381;48.770;9.188;2022-12-11T01:46:28;3.80;99.90
796;DHT22;381;48.770;9.188;2022-12-11T01:51:34;3.70;99.90
796;DHT22;381;48.770;9.188;2022-12-11T01:56:39;3.70;99.90
796;DHT22;381;48.770;9.188;2022-12-11T02:01:45;3.80;99.90
796;DHT22;381;48.770;9.188;2022-12-11T02:06:51;3.80;99.90
796;DHT22;381;48.770;9.188;2022-12-11T02:12:01;3.90;99.90
796;DHT22;381;48.770;9.188;2022-12-11T02:17:08;4.00;99.90
796;DHT22;381;48.770;9.188;2022-12-11T02:22:15;4.10;99.90
796;DHT22;381;48.770;9.188;2022-12-11T02:27:29;4.10;99.90
796;DHT22;381;48.770;9.188;2022-12-11T02:32:37;4.10;99.60
796;DHT22;381;48.770;9.188;2022-12-11T02:37:43;4.10;99.70
796;DHT22;381;48.770;9.188;2022-12-11T02:42:46;4.10;99.90
796;DHT22;381;48.770;9.188;2022-12-11T02:47:51;4.10;99.90
796;DHT22;381;48.770;9.188;2022-12-11T02:52:54;4.20;99.90
796;DHT22;381;48.770;9.188;2022-12-11T02:58:01;4.30;99.90
796;DHT22;381;48.770;9.188;2022-12-11T03:03:06;4.30;99.90
796;DHT22;381;48.770;9.188;2022-12-11T03:08:08;4.40;99.90
796;DHT22;381;48.770;9.188;2022-12-11T03:13:19;4.40;99.90
796;DHT22;381;48.770;9.188;2022-12-11T03:18:29;4.40;99.90
796;DHT22;381;48.770;9.188;2022-12-11T03:23:34;4.50;99.90
796;DHT22;381;48.770;9.188;2022-12-11T03:28:44;4.50;99.90
796;DHT22;381;48.770;9.188;2022-12-11T03:33:51;4.60;99.90
796;DHT22;381;48.770;9.188;2022-12-11T03:38:57;4.60;99.90
796;DHT22;381;48.770;9.188;2022-12-11T03:44:01;4.60;99.90
796;DHT22;381;48.770;9.188;2022-12-11T03:49:06;4.60;99.90
796;DHT22;381;48.770;9.188;2022-12-11T03:54:10;4.60;99.70
796;DHT22;381;48.770;9.188;2022-12-11T03:59:12;4.60;99.90
796;DHT22;381;48.770;9.188;2022-12-11T04:04:15;4.50;99.90
796;DHT22;381;48.770;9.188;2022-12-11T04:09:17;4.50;99.90
796;DHT22;381;48.770;9.188;2022-12-11T04:14:20;4.50;99.90
796;DHT22;381;48.770;9.188;2022-12-11T04:19:40;4.50;99.90
796;DHT22;381;48.770;9.188;2022-12-11T04:25:01;4.40;99.90
796;DHT22;381;48.770;9.188;2022-12-11T04:30:04;4.40;99.40
796;DHT22;381;48.770;9.188;2022-12-11T04:35:09;4.30;98.20
796;DHT22;381;48.770;9.188;2022-12-11T04:40:14;4.20;98.70
796;DHT22;381;48.770;9.188;2022-12-11T04:45:16;4.10;98.40
796;DHT22;381;48.770;9.188;2022-12-11T04:50:20;4.10;99.60
796;DHT22;381;48.770;9.188;2022-12-11T04:55:22;4.00;98.60
796;DHT22;381;48.770;9.188;2022-12-11T05:00:24;4.00;98.60
796;DHT22;381;48.770;9.188;2022-12-11T05:05:28;4.00;97.70
796;DHT22;381;48.770;9.188;2022-12-11T05:10:30;3.90;98.10
796;DHT22;381;48.770;9.188;2022-12-11T05:15:32;3.80;98.30
796;DHT22;381;48.770;9.188;2022-12-11T05:20:36;3.80;99.30
796;DHT22;381;48.770;9.188;2022-12-11T05:25:38;3.80;98.10
796;DHT22;381;48.770;9.188;2022-12-11T05:30:40;3.80;98.90
796;DHT22;381;48.770;9.188;2022-12-11T05:35:47;3.90;99.00
796;DHT22;381;48.770;9.188;2022-12-11T05:40:55;3.90;98.50
796;DHT22;381;48.770;9.188;2022-12-11T05:46:05;3.80;98.40
796;DHT22;381;48.770;9.188;2022-12-11T05:51:09;3.70;98.50
796;DHT22;381;48.770;9.188;2022-12-11T05:56:14;3.60;99.20
796;DHT22;381;48.770;9.188;2022-12-11T06:01:18;3.70;99.80
796;DHT22;381;48.770;9.188;2022-12-11T06:06:24;3.70;99.80
796;DHT22;381;48.770;9.188;2022-12-11T06:11:27;3.60;99.90
796;DHT22;381;48.770;9.188;2022-12-11T06:16:29;3.70;99.90
796;DHT22;381;48.770;9.188;2022-12-11T06:21:33;3.70;99.50
796;DHT22;381;48.770;9.188;2022-12-11T06:26:35;3.60;99.20
796;DHT22;381;48.770;9.188;2022-12-11T06:31:37;3.50;99.20
796;DHT22;381;48.770;9.188;2022-12-11T06:36:41;3.40;98.40
796;DHT22;381;48.770;9.188;2022-12-11T06:41:43;3.20;98.50
796;DHT22;381;48.770;9.188;2022-12-11T06:46:45;3.00;98.30
796;DHT22;381;48.770;9.188;2022-12-11T06:51:48;2.90;99.50
796;DHT22;381;48.770;9.188;2022-12-11T06:56:50;2.80;99.80
796;DHT22;381;48.770;9.188;2022-12-11T07:01:52;2.80;98.60
796;DHT22;381;48.770;9.188;2022-12-11T07:06:56;2.70;97.70
796;DHT22;381;48.770;9.188;2022-12-11T07:11:58;2.60;98.30
796;DHT22;381;48.770;9.188;2022-12-11T07:17:00;2.50;98.90
796;DHT22;381;48.770;9.188;2022-12-11T07:22:03;2.50;99.90
796;DHT22;381;48.770;9.188;2022-12-11T07:27:05;2.50;99.50
796;DHT22;381;48.770;9.188;2022-12-11T07:32:08;2.60;99.90
796;DHT22;381;48.770;9.188;2022-12-11T07:37:11;2.70;99.90
796;DHT22;381;48.770;9.188;2022-12-11T07:42:13;2.80;99.90
796;DHT22;381;48.770;9.188;2022-12-11T07:47:15;2.90;99.90
796;DHT22;381;48.770;9.188;2022-12-11T07:52:19;3.00;99.90
796;DHT22;381;48.770;9.188;2022-12-11T07:57:21;3.10;99.90
796;DHT22;381;48.770;9.188;2022-12-11T08:02:23;3.30;99.90
796;DHT22;381;48.770;9.188;2022-12-11T08:07:26;3.30;99.90
796;DHT22;381;48.770;9.188;2022-12-11T08:12:31;3.40;99.90
796;DHT22;381;48.770;9.188;2022-12-11T08:17:33;3.60;99.70
796;DHT22;381;48.770;9.188;2022-12-11T08:22:36;3.60;99.90
796;DHT22;381;48.770;9.188;2022-12-11T08:27:39;3.70;99.90
796;DHT22;381;48.770;9.188;2022-12-11T08:32:41;3.90;99.90
796;DHT22;381;48.770;9.188;2022-12-11T08:37:44;4.00;99.90
796;DHT22;381;48.770;9.188;2022-12-11T08:42:47;4.10;99.90
796;DHT22;381;48.770;9.188;2022-12-11T08:47:50;4.20;99.30
796;DHT22;381;48.770;9.188;2022-12-11T08:52:54;4.20;99.10
796;DHT22;381;48.770;9.188;2022-12-11T08:57:57;4.20;99.60
796;DHT22;381;48.770;9.188;2022-12-11T09:02:59;4.20;99.90
796;DHT22;381;48.770;9.188;2022-12-11T09:08:02;4.20;99.90
796;DHT22;381;48.770;9.188;2022-12-11T09:13:04;4.30;99.90
796;DHT22;381;48.770;9.188;2022-12-11T09:18:07;4.30;99.90
796;DHT22;381;48.770;9.188;2022-12-11T09:23:10;4.30;99.90
796;DHT22;381;48.770;9.188;2022-12-11T09:28:12;4.40;99.90
796;DHT22;381;48.770;9.188;2022-12-11T09:33:16;4.50;99.90
796;DHT22;381;48.770;9.188;2022-12-11T09:38:19;4.50;99.90
796;DHT22;381;48.770;9.188;2022-12-11T09:43:31;4.50;99.90
796;DHT22;381;48.770;9.188;2022-12-11T09:48:36;4.50;99.90
796;DHT22;381;48.770;9.188;2022-12-11T09:53:40;4.60;99.70
796;DHT22;381;48.770;9.188;2022-12-11T09:58:53;4.60;99.90
796;DHT22;381;48.770;9.188;2022-12-11T10:04:11;4.70;99.50
796;DHT22;381;48.770;9.188;2022-12-11T10:09:24;4.80;99.90
796;DHT22;381;48.770;9.188;2022-12-11T10:14:35;4.90;99.90
796;DHT22;381;48.770;9.188;2022-12-11T10:19:40;5.00;97.70
796;DHT22;381;48.770;9.188;2022-12-11T10:24:48;5.00;98.20
796;DHT22;381;48.770;9.188;2022-12-11T10:29:58;5.00;97.80
796;DHT22;381;48.770;9.188;2022-12-11T10:35:04;5.00;98.00
796;DHT22;381;48.770;9.188;2022-12-11T10:40:09;5.00;97.80
796;DHT22;381;48.770;9.188;2022-12-11T10:45:15;5.10;99.00
796;DHT22;381;48.770;9.188;2022-12-11T10:50:22;5.20;98.70
796;DHT22;381;48.770;9.188;2022-12-11T10:55:28;5.30;99.10
796;DHT22;381;48.770;9.188;2022-12-11T11:00:35;5.40;99.60
796;DHT22;381;48.770;9.188;2022-12-11T11:05:37;5.40;99.40
796;DHT22;381;48.770;9.188;2022-12-11T11:10:51;5.50;99.80
796;DHT22;381;48.770;9.188;2022-12-11T11:15:59;5.50;98.90
796;DHT22;381;48.770;9.188;2022-12-11T11:21:02;5.50;98.50
796;DHT22;381;48.770;9.188;2022-12-11T11:26:07;5.50;99.50
796;DHT22;381;48.770;9.188;2022-12-11T11:31:11;5.50;99.00
796;DHT22;381;48.770;9.188;2022-12-11T11:36:20;5.60;99.90
796;DHT22;381;48.770;9.188;2022-12-11T11:41:28;5.60;99.80
796;DHT22;381;48.770;9.188;2022-12-11T11:46:35;5.60;99.90
796;DHT22;381;48.770;9.188;2022-12-11T11:51:42;5.70;99.90
796;DHT22;381;48.770;9.188;2022-12-11T11:56:50;5.70;99.40
796;DHT22;381;48.770;9.188;2022-12-11T12:01:55;5.70;97.90
796;DHT22;381;48.770;9.188;2022-12-11T12:07:13;5.70;98.00
796;DHT22;381;48.770;9.188;2022-12-11T12:12:28;5.60;98.30
796;DHT22;381;48.770;9.188;2022-12-11T12:17:43;5.50;98.70
796;DHT22;381;48.770;9.188;2022-12-11T12:22:56;5.60;98.90
796;DHT22;381;48.770;9.188;2022-12-11T12:28:13;5.60;99.40
796;DHT22;381;48.770;9.188;2022-12-11T12:33:30;5.50;99.10
796;DHT22;381;48.770;9.188;2022-12-11T12:38:46;5.50;99.90
796;DHT22;381;48.770;9.188;2022-12-11T12:44:11;5.40;99.90
796;DHT22;381;48.770;9.188;2022-12-11T12:49:17;5.40;99.90
796;DHT22;381;48.770;9.188;2022-12-11T12:54:21;5.40;99.90
796;DHT22;381;48.770;9.188;2022-12-11T12:59:26;5.40;99.90
796;DHT22;381;48.770;9.188;2022-12-11T13:04:38;5.40;99.90
796;DHT22;381;48.770;9.188;2022-12-11T13:09:40;5.30;99.90
796;DHT22;381;48.770;9.188;2022-12-11T13:14:44;5.00;99.50
796;DHT22;381;48.770;9.188;2022-12-11T13:20:14;4.80;99.90
796;DHT22;381;48.770;9.188;2022-12-11T13:25:24;4.70;99.90
796;DHT22;381;48.770;9.188;2022-12-11T13:30:28;4.70;99.90
796;DHT22;381;48.770;9.188;2022-12-11T13:35:31;4.60;99.90
796;DHT22;381;48.770;9.188;2022-12-11T13:40:38;4.60;99.90
796;DHT22;381;48.770;9.188;2022-12-11T13:45:47;4.60;99.90
796;DHT22;381;48.770;9.188;2022-12-11T13:50:50;4.60;99.90
796;DHT22;381;48.770;9.188;2022-12-11T13:55:57;4.60;99.90
796;DHT22;381;48.770;9.188;2022-12-11T14:01:06;4.60;99.90
796;DHT22;381;48.770;9.188;2022-12-11T14:06:11;4.60;99.90
796;DHT22;381;48.770;9.188;2022-12-11T14:11:20;4.50;99.90
796;DHT22;381;48.770;9.188;2022-12-11T14:16:26;4.50;99.90
796;DHT22;381;48.770;9.188;2022-12-11T14:21:29;4.50;99.90
796;DHT22;381;48.770;9.188;2022-12-11T14:26:33;4.50;99.90
796;DHT22;381;48.770;9.188;2022-12-11T14:31:40;4.40;99.90
796;DHT22;381;48.770;9.188;2022-12-11T14:36:44;4.40;99.90
796;DHT22;381;48.770;9.188;2022-12-11T14:41:49;4.30;99.90
796;DHT22;381;48.770;9.188;2022-12-11T14:46:58;4.30;99.90
796;DHT22;381;48.770;9.188;2022-12-11T14:52:02;4.30;99.90
796;DHT22;381;48.770;9.188;2022-12-11T14:57:06;4.30;99.90
796;DHT22;381;48.770;9.188;2022-12-11T15:02:24;4.20;99.60
796;DHT22;381;48.770;9.188;2022-12-11T15:07:26;4.20;99.90
796;DHT22;381;48.770;9.188;2022-12-11T15:12:30;4.20;99.90
796;DHT22;381;48.770;9.188;2022-12-11T15:17:33;4.10;99.90
796;DHT22;381;48.770;9.188;2022-12-11T15:22:40;4.10;99.90
796;DHT22;381;48.770;9.188;2022-12-11T15:27:49;4.10;99.90
796;DHT22;381;48.770;9.188;2022-12-11T15:33:03;4.10;99.90
796;DHT22;381;48.770;9.188;2022-12-11T15:38:05;4.10;99.90
796;DHT22;381;48.770;9.188;2022-12-11T15:43:07;4.10;99.90
796;DHT22;381;48.770;9.188;2022-12-11T15:48:11;4.10;99.90
796;DHT22;381;48.770;9.188;2022-12-11T15:53:13;4.10;99.90
796;DHT22;381;48.770;9.188;2022-12-11T15:58:19;4.20;99.90
796;DHT22;381;48.770;9.188;2022-12-11T16:03:23;4.20;99.90
796;DHT22;381;48.770;9.188;2022-12-11T16:08:25;4.30;99.90
796;DHT22;381;48.770;9.188;2022-12-11T16:13:27;4.40;99.90
796;DHT22;381;48.770;9.188;2022-12-11T16:18:31;4.50;99.90
796;DHT22;381;48.770;9.188;2022-12-11T16:23:33;4.50;99.90
796;DHT22;381;48.770;9.188;2022-12-11T16:28:35;4.60;99.90
796;DHT22;381;48.770;9.188;2022-12-11T16:33:38;4.60;99.90
796;DHT22;381;48.770;9.188;2022-12-11T16:38:43;4.50;99.90
796;DHT22;381;48.770;9.188;2022-12-11T16:43:45;4.50;99.90
796;DHT22;381;48.770;9.188;2022-12-11T16:48:54;4.40;99.90
796;DHT22;381;48.770;9.188;2022-12-11T16:53:56;4.40;99.90
796;DHT22;381;48.770;9.188;2022-12-11T16:59:02;4.30;99.90
796;DHT22;381;48.770;9.188;2022-12-11T17:04:06;4.20;99.90
796;DHT22;381;48.770;9.188;2022-12-11T17:09:17;4.10;99.90
796;DHT22;381;48.770;9.188;2022-12-11T17:14:19;4.00;99.90
796;DHT22;381;48.770;9.188;2022-12-11T17:19:25;3.90;99.90
796;DHT22;381;48.770;9.188;2022-12-11T17:24:30;3.90;99.90
796;DHT22;381;48.770;9.188;2022-12-11T17:29:32;3.80;99.90
796;DHT22;381;48.770;9.188;2022-12-11T17:34:35;3.80;99.90
796;DHT22;381;48.770;9.188;2022-12-11T17:39:38;3.80;99.90
796;DHT22;381;48.770;9.188;2022-12-11T17:44:49;3.80;99.90
796;DHT22;381;48.770;9.188;2022-12-11T17:50:09;3.80;99.90
796;DHT22;381;48.770;9.188;2022-12-11T17:55:16;3.80;99.90
796;DHT22;381;48.770;9.188;2022-12-11T18:00:30;3.80;99.90
796;DHT22;381;48.770;9.188;2022-12-11T18:05:39;3.80;99.90
796;DHT22;381;48.770;9.188;2022-12-11T18:10:42;3.80;99.90
796;DHT22;381;48.770;9.188;2022-12-11T18:16:10;3.90;99.90
796;DHT22;381;48.770;9.188;2022-12-11T18:21:26;4.00;99.90
796;DHT22;381;48.770;9.188;2022-12-11T18:26:28;4.00;99.90
796;DHT22;381;48.770;9.188;2022-12-11T18:31:30;4.10;99.90
796;DHT22;381;48.770;9.188;2022-12-11T18:36:34;4.10;99.90
796;DHT22;381;48.770;9.188;2022-12-11T18:41:38;4.00;99.90
796;DHT22;381;48.770;9.188;2022-12-11T18:46:41;3.90;99.90
796;DHT22;381;48.770;9.188;2022-12-11T18:51:45;3.80;99.90
796;DHT22;381;48.770;9.188;2022-12-11T18:56:47;3.80;99.90
796;DHT22;381;48.770;9.188;2022-12-11T19:01:49;3.70;99.90
796;DHT22;381;48.770;9.188;2022-12-11T19:06:52;3.60;99.90
796;DHT22;381;48.770;9.188;2022-12-11T19:11:57;3.60;99.90
796;DHT22;381;48.770;9.188;2022-12-11T19:17:00;3.50;99.90
796;DHT22;381;48.770;9.188;2022-12-11T19:22:04;3.40;99.90
796;DHT22;381;48.770;9.188;2022-12-11T19:27:06;3.30;99.90
796;DHT22;381;48.770;9.188;2022-12-11T19:32:10;3.20;99.90
796;DHT22;381;48.770;9.188;2022-12-11T19:37:15;3.00;99.90
796;DHT22;381;48.770;9.188;2022-12-11T19:42:17;2.90;99.90
796;DHT22;381;48.770;9.188;2022-12-11T19:47:19;2.80;99.90
796;DHT22;381;48.770;9.188;2022-12-11T19:52:23;2.70;99.90
796;DHT22;381;48.770;9.188;2022-12-11T19:57:25;2.60;99.70
796;DHT22;381;48.770;9.188;2022-12-11T20:02:28;2.30;99.90
796;DHT22;381;48.770;9.188;2022-12-11T20:07:33;2.20;99.90
796;DHT22;381;48.770;9.188;2022-12-11T20:12:38;2.20;99.90
796;DHT22;381;48.770;9.188;2022-12-11T20:18:00;2.20;99.90
796;DHT22;381;48.770;9.188;2022-12-11T20:23:23;2.30;99.90
796;DHT22;381;48.770;9.188;2022-12-11T20:28:30;2.40;99.90
796;DHT22;381;48.770;9.188;2022-12-11T20:33:32;2.50;99.90
796;DHT22;381;48.770;9.188;2022-12-11T20:38:38;2.60;99.90
796;DHT22;381;48.770;9.188;2022-12-11T20:43:40;2.70;99.90
796;DHT22;381;48.770;9.188;2022-12-11T20:48:44;2.80;99.90
796;DHT22;381;48.770;9.188;2022-12-11T20:53:49;3.00;99.90
796;DHT22;381;48.770;9.188;2022-12-11T20:58:58;3.10;99.90
796;DHT22;381;48.770;9.188;2022-12-11T21:04:00;3.20;99.90
796;DHT22;381;48.770;9.188;2022-12-11T21:09:06;3.20;99.90
796;DHT22;381;48.770;9.188;2022-12-11T21:14:09;3.30;99.90
796;DHT22;381;48.770;9.188;2022-12-11T21:19:12;3.40;99.90
796;DHT22;381;48.770;9.188;2022-12-11T21:24:18;3.50;99.90
796;DHT22;381;48.770;9.188;2022-12-11T21:29:22;3.60;99.90
796;DHT22;381;48.770;9.188;2022-12-11T21:34:24;3.70;99.90
796;DHT22;381;48.770;9.188;2022-12-11T21:39:28;3.70;99.90
796;DHT22;381;48.770;9.188;2022-12-11T21:44:30;3.80;99.90
796;DHT22;381;48.770;9.188;2022-12-11T21:49:32;3.90;99.90
796;DHT22;381;48.770;9.188;2022-12-11T21:54:40;3.90;99.90
796;DHT22;381;48.770;9.188;2022-12-11T21:59:42;3.90;99.90
796;DHT22;381;48.770;9.188;2022-12-11T22:04:44;4.00;99.90
796;DHT22;381;48.770;9.188;2022-12-11T22:09:48;4.00;99.90
796;DHT22;381;48.770;9.188;2022-12-11T22:14:50;4.10;99.90
796;DHT22;381;48.770;9.188;2022-12-11T22:19:52;4.10;99.90
796;DHT22;381;48.770;9.188;2022-12-11T22:24:56;4.20;99.80
796;DHT22;381;48.770;9.188;2022-12-11T22:29:58;4.10;99.90
796;DHT22;381;48.770;9.188;2022-12-11T22:35:00;4.20;99.90
796;DHT22;381;48.770;9.188;2022-12-11T22:40:05;4.20;99.90
796;DHT22;381;48.770;9.188;2022-12-11T22:45:08;4.20;99.90
796;DHT22;381;48.770;9.188;2022-12-11T22:50:12;4.20;99.90
796;DHT22;381;48.770;9.188;2022-12-11T22:55:15;4.10;99.80
796;DHT22;381;48.770;9.188;2022-12-11T23:00:21;4.10;99.60
796;DHT22;381;48.770;9.188;2022-12-11T23:05:23;4.10;99.60
796;DHT22;381;48.770;9.188;2022-12-11T23:10:27;4.00;99.90
796;DHT22;381;48.770;9.188;2022-12-11T23:15:30;4.00;99.70
796;DHT22;381;48.770;9.188;2022-12-11T23:20:32;4.00;99.90
796;DHT22;381;48.770;9.188;2022-12-11T23:25:36;4.00;99.90
796;DHT22;381;48.770;9.188;2022-12-11T23:30:40;4.00;98.70
796;DHT22;381;48.770;9.188;2022-12-11T23:35:43;3.90;99.20
796;DHT22;381;48.770;9.188;2022-12-11T23:40:47;3.80;99.00
796;DHT22;381;48.770;9.188;2022-12-11T23:45:49;3.80;99.40
796;DHT22;381;48.770;9.188;2022-12-11T23:50:57;3.80;99.50
796;DHT22;381;48.770;9.188;2022-12-11T23:56:03;3.70;98.90
